createdAt,value
2022-11-03T00:01:05.482Z,101119.78
2022-11-03T00:04:12.052Z,101123.91
2022-11-03T00:07:20.579Z,101121.56
2022-11-03T00:10:23.432Z,101133.56
2022-11-03T00:13:25.990Z,101126.78
2022-11-03T00:16:29.222Z,101123.88
2022-11-03T00:19:32.881Z,101120.50
2022-11-03T00:22:37.030Z,101119.78
2022-11-03T00:25:39.598Z,101128.56
2022-11-03T00:28:44.900Z,101124.75
2022-11-03T00:31:47.460Z,101130.19
2022-11-03T00:34:50.609Z,101124.22
2022-11-03T00:37:53.217Z,101127.19
2022-11-03T00:41:01.364Z,101124.94
2022-11-03T00:44:04.656Z,101111.78
2022-11-03T00:47:07.632Z,101117.91
2022-11-03T00:50:10.160Z,101114.50
2022-11-03T00:53:13.014Z,101116.34
2022-11-03T00:56:18.119Z,101120.72
2022-11-03T00:59:21.920Z,101114.09
2022-11-03T01:02:24.558Z,101114.84
2022-11-03T01:05:45.984Z,101112.94
2022-11-03T01:08:48.559Z,101116.50
2022-11-03T01:12:13.090Z,101124.16
2022-11-03T01:15:15.879Z,101117.63
2022-11-03T01:18:18.791Z,101114.56
2022-11-03T01:21:21.437Z,101116.56
2022-11-03T01:24:24.442Z,101120.81
2022-11-03T01:27:26.920Z,101117.28
2022-11-03T01:30:30.051Z,101113.78
2022-11-03T01:33:33.370Z,101125.84
2022-11-03T01:36:36.299Z,101123.38
2022-11-03T01:39:38.812Z,101124.34
2022-11-03T01:42:41.743Z,101115.75
2022-11-03T01:45:45.471Z,101122.16
2022-11-03T01:49:11.649Z,101120.47
2022-11-03T01:52:20.289Z,101118.84
2022-11-03T01:55:28.746Z,101121.09
2022-11-03T01:58:36.493Z,101121.66
2022-11-03T02:01:39.823Z,101118.72
2022-11-03T02:04:43.840Z,101117.75
2022-11-03T02:11:35.281Z,101110.50
2022-11-03T02:14:49.871Z,101114.56
2022-11-03T02:17:55.722Z,101106.97
2022-11-03T02:21:12.176Z,101104.19
2022-11-03T02:24:43.307Z,101098.34
2022-11-03T02:27:46.350Z,101094.47
2022-11-03T02:31:24.429Z,101098.84
2022-11-03T02:34:34.606Z,101087.31
2022-11-03T02:37:42.533Z,101082.13
2022-11-03T02:40:52.054Z,101091.34
2022-11-03T02:43:57.243Z,101077.19
2022-11-03T02:47:03.999Z,101066.69
2022-11-03T02:50:10.719Z,101064.59
2022-11-03T02:53:14.592Z,101067.19
2022-11-03T02:56:24.960Z,101071.41
2022-11-03T02:59:32.199Z,101077.59
2022-11-03T03:03:08.176Z,101087.00
2022-11-03T03:06:19.447Z,101087.47
2022-11-03T03:09:29.537Z,101083.12
2022-11-03T03:12:35.660Z,101088.00
2022-11-03T03:15:46.562Z,101081.81
2022-11-03T03:19:04.690Z,101075.34
2022-11-03T03:22:35.144Z,101076.00
2022-11-03T03:25:40.986Z,101081.81
2022-11-03T03:28:52.594Z,101072.91
2022-11-03T03:31:59.064Z,101065.59
2022-11-03T03:35:03.616Z,101067.09
2022-11-03T03:38:11.172Z,101069.84
2022-11-03T03:41:22.274Z,101055.72
2022-11-03T03:44:26.185Z,101062.22
2022-11-03T03:47:31.262Z,101056.72
2022-11-03T03:50:38.783Z,101063.84
2022-11-03T03:53:42.537Z,101060.13
2022-11-03T03:56:54.545Z,101055.41
2022-11-03T03:59:57.446Z,101063.34
2022-11-03T04:03:00.365Z,101059.63
2022-11-03T04:06:03.889Z,101061.91
2022-11-03T04:09:07.425Z,101050.72
2022-11-03T04:12:29.121Z,101053.13
2022-11-03T04:15:51.112Z,101041.16
2022-11-03T04:19:12.747Z,101047.97
2022-11-03T04:22:18.240Z,101040.19
2022-11-03T04:25:21.181Z,101044.22
2022-11-03T04:28:25.928Z,101034.00
2022-11-03T04:31:31.952Z,101036.59
2022-11-03T04:34:34.588Z,101032.09
2022-11-03T04:37:38.256Z,101033.53
2022-11-03T04:40:44.602Z,101042.12
2022-11-03T04:43:47.808Z,101035.66
2022-11-03T04:46:50.432Z,101036.38
2022-11-03T04:49:53.356Z,101031.53
2022-11-03T04:52:59.425Z,101028.84
2022-11-03T04:56:07.222Z,101023.22
2022-11-03T04:59:14.512Z,101016.22
2022-11-03T05:02:20.401Z,101021.78
2022-11-03T05:05:26.294Z,101024.53
2022-11-03T05:08:29.716Z,101031.84
2022-11-03T05:11:39.308Z,101021.81
2022-11-03T05:14:42.300Z,101016.53
2022-11-03T05:17:44.860Z,101016.66
2022-11-03T05:20:56.835Z,101024.28
2022-11-03T05:24:03.658Z,101021.38
2022-11-03T05:27:16.785Z,101031.59
2022-11-03T05:30:19.406Z,101012.16
2022-11-03T05:33:28.628Z,101021.22
2022-11-03T05:36:33.883Z,101025.78
2022-11-03T05:39:40.742Z,101027.56
2022-11-03T05:42:46.881Z,101026.72
2022-11-03T05:45:58.146Z,101023.78
2022-11-03T05:49:07.691Z,101024.31
2022-11-03T05:52:23.271Z,101021.38
2022-11-03T05:55:35.017Z,101024.94
2022-11-03T05:58:39.763Z,101023.00
2022-11-03T06:01:42.518Z,101030.59
2022-11-03T06:04:45.447Z,101031.25
2022-11-03T06:07:50.122Z,101028.97
2022-11-03T06:10:55.725Z,101033.16
2022-11-03T06:13:59.626Z,101041.28
2022-11-03T06:17:08.593Z,101047.41
2022-11-03T06:20:19.152Z,101055.00
2022-11-03T06:23:23.120Z,101041.72
2022-11-03T06:26:28.843Z,101047.84
2022-11-03T06:29:33.658Z,101052.38
2022-11-03T06:32:36.684Z,101063.38
2022-11-03T06:35:39.945Z,101065.19
2022-11-03T06:38:43.447Z,101058.69
2022-11-03T06:41:47.439Z,101067.59
2022-11-03T06:44:51.764Z,101078.94
2022-11-03T06:47:55.373Z,101073.72
2022-11-03T06:51:00.094Z,101076.25
2022-11-03T06:54:09.809Z,101078.38
2022-11-03T06:57:14.874Z,101085.47
2022-11-03T07:00:37.022Z,101076.81
2022-11-03T07:03:42.590Z,101085.69
2022-11-03T07:06:52.807Z,101087.25
2022-11-03T07:09:56.025Z,101091.41
2022-11-03T07:13:12.306Z,101093.12
2022-11-03T07:16:43.031Z,101095.50
2022-11-03T07:19:46.216Z,101090.66
2022-11-03T07:22:50.160Z,101080.28
2022-11-03T07:26:02.906Z,101085.94
2022-11-03T07:29:23.174Z,101077.44
2022-11-03T07:32:33.505Z,101069.91
2022-11-03T07:39:21.526Z,101072.31
2022-11-03T07:42:26.413Z,101071.78
2022-11-03T07:45:45.358Z,101062.66
2022-11-03T07:48:50.360Z,101066.03
2022-11-03T07:51:54.698Z,101070.53
2022-11-03T07:54:57.422Z,101068.56
2022-11-03T07:58:00.351Z,101058.31
2022-11-03T08:01:16.702Z,101054.16
2022-11-03T08:04:26.074Z,101052.97
2022-11-03T08:07:29.087Z,101042.47
2022-11-03T08:10:32.705Z,101036.00
2022-11-03T08:13:35.760Z,101036.38
2022-11-03T08:16:38.946Z,101036.22
2022-11-03T08:19:42.115Z,101032.88
2022-11-03T08:22:59.088Z,101030.13
2022-11-03T08:26:07.712Z,101031.66
2022-11-03T08:29:10.726Z,101023.75
2022-11-03T08:32:14.246Z,101018.78
2022-11-03T08:35:17.326Z,101014.78
2022-11-03T08:38:19.882Z,101020.84
2022-11-03T08:41:22.833Z,101015.12
2022-11-03T08:44:25.456Z,101006.97
2022-11-03T08:47:28.275Z,101001.62
2022-11-03T08:50:30.896Z,100995.59
2022-11-03T08:53:34.714Z,100993.69
2022-11-03T08:56:37.241Z,100985.81
2022-11-03T08:59:40.170Z,100980.75
2022-11-03T09:02:43.877Z,100973.59
2022-11-03T09:05:47.133Z,100964.84
2022-11-03T09:12:12.709Z,100948.78
2022-11-03T09:15:15.507Z,100951.63
2022-11-03T09:18:18.377Z,100946.78
2022-11-03T09:21:20.971Z,100952.00
2022-11-03T09:24:23.776Z,100938.44
2022-11-03T09:27:26.419Z,100926.38
2022-11-03T09:30:29.502Z,100928.03
2022-11-03T09:33:32.062Z,100930.69
2022-11-03T09:36:35.116Z,100928.19
2022-11-03T09:39:37.817Z,100915.37
2022-11-03T09:42:41.502Z,100917.88
2022-11-03T09:45:44.772Z,100915.37
2022-11-03T09:48:47.930Z,100903.06
2022-11-03T09:51:50.558Z,100892.25
2022-11-03T09:54:58.078Z,100885.19
2022-11-03T09:58:09.584Z,100874.56
2022-11-03T10:01:13.545Z,100870.16
2022-11-03T10:04:21.530Z,100867.53
2022-11-03T10:07:27.323Z,100862.75
2022-11-03T10:10:31.067Z,100858.88
2022-11-03T10:13:39.144Z,100852.75
2022-11-03T10:16:43.123Z,100849.22
2022-11-03T10:19:49.601Z,100844.00
2022-11-03T10:22:54.659Z,100844.56
2022-11-03T10:26:10.210Z,100836.41
2022-11-03T10:32:30.954Z,100836.94
2022-11-03T10:35:36.966Z,100819.94
2022-11-03T10:38:39.570Z,100822.00
2022-11-03T10:41:57.587Z,100819.63
2022-11-03T10:45:20.160Z,100807.31
2022-11-03T10:48:25.178Z,100802.03
2022-11-03T10:51:29.229Z,100798.50
2022-11-03T10:54:35.702Z,100790.09
2022-11-03T10:57:38.593Z,100796.69
2022-11-03T11:00:42.948Z,100792.53
2022-11-03T11:03:45.950Z,100785.44
2022-11-03T11:06:49.620Z,100785.09
2022-11-03T11:09:54.475Z,100776.31
2022-11-03T11:13:15.755Z,100777.50
2022-11-03T11:16:54.370Z,100773.22
2022-11-03T11:20:31.031Z,100764.09
2022-11-03T11:23:33.615Z,100744.81
2022-11-03T11:26:37.939Z,100765.69
2022-11-03T11:29:40.509Z,100748.41
2022-11-03T11:32:46.163Z,100745.53
2022-11-03T11:35:48.675Z,100745.87
2022-11-03T11:38:55.851Z,100737.59
2022-11-03T11:42:14.770Z,100740.31
2022-11-03T11:45:56.260Z,100735.25
2022-11-03T11:49:04.548Z,100739.81
2022-11-03T11:52:15.217Z,100723.09
2022-11-03T11:55:42.594Z,100719.66
2022-11-03T11:58:53.033Z,100720.22
2022-11-03T12:01:57.268Z,100710.78
2022-11-03T12:05:04.905Z,100714.66
2022-11-03T12:08:21.422Z,100706.09
2022-11-03T12:11:55.344Z,100708.59
2022-11-03T12:14:58.811Z,100703.88
2022-11-03T12:18:40.659Z,100695.84
2022-11-03T12:21:46.722Z,100705.06
2022-11-03T12:24:55.785Z,100694.03
2022-11-03T12:27:58.456Z,100686.19
2022-11-03T12:31:02.110Z,100687.41
2022-11-03T12:34:04.984Z,100675.31
2022-11-03T12:37:08.572Z,100664.94
2022-11-03T12:40:13.973Z,100649.09
2022-11-03T12:43:17.137Z,100644.25
2022-11-03T12:46:21.491Z,100638.94
2022-11-03T12:49:24.546Z,100631.25
2022-11-03T12:52:27.122Z,100618.94
2022-11-03T12:55:30.373Z,100621.59
2022-11-03T12:58:33.219Z,100606.28
2022-11-03T13:01:36.307Z,100595.84
2022-11-03T13:04:39.241Z,100602.47
2022-11-03T13:07:43.370Z,100596.28
2022-11-03T13:10:46.022Z,100598.28
2022-11-03T13:13:48.991Z,100589.63
2022-11-03T13:16:51.781Z,100591.44
2022-11-03T13:19:54.929Z,100597.38
2022-11-03T13:22:57.497Z,100603.16
2022-11-03T13:26:00.591Z,100599.47
2022-11-03T13:29:03.864Z,100619.94
2022-11-03T13:32:08.491Z,100607.81
2022-11-03T13:35:13.933Z,100607.63
2022-11-03T13:38:18.538Z,100623.47
2022-11-03T13:41:21.093Z,100610.53
2022-11-03T13:44:26.612Z,100615.91
2022-11-03T13:47:41.939Z,100608.59
2022-11-03T13:50:53.323Z,100605.22
2022-11-03T14:00:43.292Z,100605.25
2022-11-03T14:07:08.918Z,100614.56
2022-11-03T14:10:11.852Z,100611.19
2022-11-03T14:13:14.372Z,100614.41
2022-11-03T14:16:17.453Z,100609.41
2022-11-03T14:19:20.259Z,100600.06
2022-11-03T14:22:24.142Z,100603.44
2022-11-03T14:25:27.116Z,100597.41
2022-11-03T14:28:30.067Z,100585.84
2022-11-03T14:31:33.913Z,100588.50
2022-11-03T14:34:38.005Z,100581.00
2022-11-03T14:37:40.791Z,100573.44
2022-11-03T14:41:02.821Z,100572.69
2022-11-03T14:44:07.247Z,100574.84
2022-11-03T14:47:15.798Z,100574.50
2022-11-03T14:50:18.294Z,100562.13
2022-11-03T14:53:21.459Z,100562.13
2022-11-03T14:56:24.728Z,100566.81
2022-11-03T14:59:28.236Z,100558.84
2022-11-03T15:02:30.795Z,100556.88
2022-11-03T15:05:46.074Z,100552.06
2022-11-03T15:08:53.448Z,100545.69
2022-11-03T15:11:59.007Z,100536.00
2022-11-03T15:15:01.610Z,100530.44
2022-11-03T15:18:04.740Z,100532.41
2022-11-03T15:21:07.463Z,100527.09
2022-11-03T15:27:32.932Z,100520.81
2022-11-03T15:30:35.842Z,100514.66
2022-11-03T15:33:38.447Z,100509.78
2022-11-03T15:36:41.337Z,100504.53
2022-11-03T15:39:43.925Z,100504.06
2022-11-03T15:42:46.874Z,100503.56
2022-11-03T15:45:49.395Z,100502.69
2022-11-03T15:48:54.813Z,100503.09
2022-11-03T15:51:57.520Z,100496.31
2022-11-03T15:55:00.430Z,100480.75
2022-11-03T15:58:04.576Z,100477.19
2022-11-03T16:01:07.975Z,100485.94
2022-11-03T16:04:13.436Z,100484.31
2022-11-03T16:07:16.018Z,100492.28
2022-11-03T16:10:18.832Z,100482.28
2022-11-03T16:13:21.566Z,100478.34
2022-11-03T16:16:24.469Z,100475.88
2022-11-03T16:19:27.094Z,100486.44
2022-11-03T16:22:30.999Z,100491.91
2022-11-03T16:25:34.707Z,100490.97
2022-11-03T16:28:37.855Z,100496.12
2022-11-03T16:31:40.685Z,100504.00
2022-11-03T16:34:44.953Z,100501.66
2022-11-03T16:37:49.533Z,100506.75
2022-11-03T16:40:53.223Z,100494.00
2022-11-03T16:43:56.205Z,100497.59
2022-11-03T16:46:59.148Z,100498.88
2022-11-03T16:50:01.739Z,100498.13
2022-11-03T16:53:06.034Z,100503.06
2022-11-03T16:56:10.251Z,100492.28
2022-11-03T16:59:13.299Z,100490.81
2022-11-03T17:02:18.473Z,100479.75
2022-11-03T17:05:22.086Z,100472.66
2022-11-03T17:08:51.294Z,100470.34
2022-11-03T17:11:48.899Z,100470.19
2022-11-03T17:14:55.630Z,100466.28
2022-11-03T17:18:00.408Z,100473.12
2022-11-03T17:21:03.054Z,100471.06
2022-11-03T17:24:06.912Z,100467.16
2022-11-03T17:27:15.743Z,100456.63
2022-11-03T17:30:31.514Z,100449.47
2022-11-03T17:33:35.315Z,100442.28
2022-11-03T17:36:38.379Z,100439.75
2022-11-03T17:39:41.647Z,100434.13
2022-11-03T17:42:45.049Z,100434.22
2022-11-03T17:45:47.709Z,100431.22
2022-11-03T17:48:50.599Z,100431.03
2022-11-03T17:51:55.157Z,100437.53
2022-11-03T17:55:01.263Z,100430.22
2022-11-03T17:58:06.433Z,100427.56
2022-11-03T18:01:11.088Z,100425.72
2022-11-03T18:04:18.150Z,100414.28
2022-11-03T18:07:24.840Z,100412.56
2022-11-03T18:10:33.605Z,100399.06
2022-11-03T18:13:37.501Z,100386.91
2022-11-03T18:16:41.476Z,100379.63
2022-11-03T18:19:45.564Z,100385.31
2022-11-03T18:22:49.379Z,100368.69
2022-11-03T18:25:54.773Z,100364.00
2022-11-03T18:28:58.268Z,100356.41
2022-11-03T18:32:03.945Z,100346.56
2022-11-03T18:35:11.625Z,100335.91
2022-11-03T18:38:15.881Z,100342.75
2022-11-03T18:41:38.648Z,100352.34
2022-11-03T18:44:46.907Z,100349.28
2022-11-03T18:47:49.931Z,100337.47
2022-11-03T18:50:56.854Z,100337.69
2022-11-03T18:54:00.412Z,100323.09
2022-11-03T18:57:04.029Z,100312.13
2022-11-03T19:00:19.521Z,100295.44
2022-11-03T19:03:23.845Z,100304.66
2022-11-03T19:06:27.224Z,100295.16
2022-11-03T19:09:30.814Z,100283.03
2022-11-03T19:12:38.796Z,100283.84
2022-11-03T19:15:43.286Z,100280.41
2022-11-03T19:18:47.077Z,100268.56
2022-11-03T19:21:53.756Z,100280.53
2022-11-03T19:24:57.182Z,100267.56
2022-11-03T19:28:00.979Z,100263.38
2022-11-03T19:31:04.545Z,100253.94
2022-11-03T19:34:13.631Z,100247.78
2022-11-03T19:37:18.146Z,100249.03
2022-11-03T19:40:21.305Z,100244.75
2022-11-03T19:43:24.630Z,100234.47
2022-11-03T19:46:28.315Z,100249.72
2022-11-03T19:49:31.636Z,100253.34
2022-11-03T19:52:35.880Z,100251.75
2022-11-03T19:55:42.672Z,100244.94
2022-11-03T19:58:46.733Z,100247.69
2022-11-03T20:01:50.730Z,100248.78
2022-11-03T20:04:55.323Z,100256.28
2022-11-03T20:08:04.596Z,100242.44
2022-11-03T20:11:08.822Z,100245.28
2022-11-03T20:14:18.397Z,100244.41
2022-11-03T20:17:23.374Z,100244.47
2022-11-03T20:20:31.067Z,100238.47
2022-11-03T20:23:35.976Z,100241.25
2022-11-03T20:26:39.135Z,100237.00
2022-11-03T20:29:42.984Z,100237.81
2022-11-03T20:32:48.558Z,100238.97
2022-11-03T20:35:53.973Z,100248.47
2022-11-03T20:38:59.805Z,100244.91
2022-11-03T20:42:04.453Z,100237.00
2022-11-03T20:45:16.591Z,100229.03
2022-11-03T20:48:19.859Z,100221.91
2022-11-03T20:51:26.459Z,100225.50
2022-11-03T20:54:30.663Z,100221.13
2022-11-03T20:57:33.285Z,100212.03
2022-11-03T21:00:36.645Z,100216.41
2022-11-03T21:07:04.302Z,100211.19
2022-11-03T21:10:07.475Z,100213.13
2022-11-03T21:13:17.925Z,100203.63
2022-11-03T21:16:41.106Z,100208.72
2022-11-03T21:19:59.433Z,100201.94
2022-11-03T21:23:06.527Z,100197.59
2022-11-03T21:26:12.705Z,100197.59
2022-11-03T21:29:27.495Z,100183.72
2022-11-03T21:32:38.229Z,100168.59
2022-11-03T21:35:42.674Z,100157.47
2022-11-03T21:38:45.794Z,100151.47
2022-11-03T21:42:07.351Z,100143.91
2022-11-03T21:45:10.808Z,100119.69
2022-11-03T21:48:32.461Z,100119.28
2022-11-03T21:51:35.391Z,100115.66
2022-11-03T21:54:39.418Z,100120.84
2022-11-03T21:57:42.248Z,100111.72
2022-11-03T22:00:47.361Z,100091.44
2022-11-03T22:03:51.390Z,100064.81
2022-11-03T22:06:56.215Z,100082.69
2022-11-03T22:09:59.126Z,100082.69
2022-11-03T22:13:01.650Z,100083.03
2022-11-03T22:16:23.636Z,100086.66
2022-11-03T22:19:45.041Z,100075.59
2022-11-03T22:23:06.765Z,100064.03
2022-11-03T22:26:31.601Z,100069.19
2022-11-03T22:29:53.299Z,100060.41
2022-11-03T22:32:58.077Z,100044.53
2022-11-03T22:36:21.900Z,100044.91
2022-11-03T22:39:44.842Z,100040.87
2022-11-03T22:43:06.641Z,100031.69
2022-11-03T22:46:11.255Z,100024.16
2022-11-03T22:49:14.180Z,100028.50
2022-11-03T22:52:16.790Z,100009.06
2022-11-03T22:55:19.775Z,100018.53
2022-11-03T22:58:25.318Z,100012.50
2022-11-03T23:01:32.167Z,100024.03
2022-11-03T23:04:37.372Z,100009.31
2022-11-03T23:07:41.770Z,100016.91
2022-11-03T23:10:44.534Z,100010.53
2022-11-03T23:13:53.313Z,99992.34
2022-11-03T23:16:55.895Z,99995.44
2022-11-03T23:20:17.166Z,99983.97
2022-11-03T23:23:39.417Z,99981.16
2022-11-03T23:26:43.036Z,99965.25
2022-11-03T23:29:45.603Z,99965.22
2022-11-03T23:32:48.771Z,99960.41
2022-11-03T23:35:51.453Z,99938.69
2022-11-03T23:38:58.515Z,99934.69
2022-11-03T23:42:01.207Z,99930.31
2022-11-03T23:45:22.960Z,99923.59
2022-11-03T23:48:44.229Z,99934.34
2022-11-03T23:51:47.166Z,99928.81
2022-11-03T23:54:49.792Z,99912.53
2022-11-03T23:58:11.219Z,99924.84
